Weather at Aérodrome de Thouars

Public forecast

Using degrees Celsius for public forecast. Weather courtesy of forecast.io.

Closest aviation weather report (METAR) to Aérodrome de Thouars

Closest report is Poitiers-Biard Airport, 29.4 nm (54.4 km) SE. Retrieved 2021/08/04 06:30 UTC (4 minutes ago):

LFBI 040630Z AUTO 15007KT 120V180 9999 OVC005 16/15 Q1011 TEMPO 3000 RA OVC005 SCT030TCU

Closest aviation forecast (TAF) to Aérodrome de Thouars

Closest forecast is Poitiers-Biard Airport, 29.4 nm (54.4 km) SE. Retrieved 2021/08/04 06:42 UTC (0 seconds ago):

TAF LFBI 040500Z 0406/0506 15007KT 9999 SCT005 OVC015 TEMPO 0406/0410 3000 RA OVC005 SCT030TCU BECMG 0410/0412 23010KT BKN030 TEMPO 0410/0421 -SHRA SCT025TCU PROB40 TEMPO 0413/0416 VRB15G30KT 4000 SHRA BKN010 SCT030CB TEMPO 0501/0506 4000 BR OVC003